Aeroporto :
LOGIN :

Iscrizione | Disclaimer

   EN    FR    IT 

 










Sommario :    VFR   VFR Marginale   IFR   IFR Intensivo   IFR Molto Intensivo
Visibilità : 
Base nubi : 
>= 8 km
>= 3000ft
5 / 8 km
1000 / 3000 ft
1500m / 5 km
500 / 1000 ft
800 / 1500m
200 / 500 ft
< 800m
< 200 ft
Simboli :   Temporali  Nebbia  Neve Forte  Precipitazioni Forti  Vento > 20 kt
SIGMETs :   Varie  Temporali  Ghiacco  Turbolenza  Onda orograficha  Ceneri Vulcaniche






- Altitudine del aeroporto : 597 ft
- Codice IATA : PDV


LBPD - Plovdiv

ULTIMO METAR :
  • 291230Z AUTO 28015KT 9999 NCD 11/M04 Q1018 NOSIG

METARs OBSOLETI :
  • 291200Z AUTO 28013KT 9999 FEW058 11/M04 Q1018 NOSIG
  • 291130Z AUTO 27017KT 9999 FEW063 10/M04 Q1018 NOSIG
  • 291100Z AUTO 26020KT 9999 BKN054 10/M04 Q1018 NOSIG
  • 291030Z AUTO 27016KT 9999 FEW052 10/M04 Q1018 NOSIG
  • 291000Z AUTO 28019KT 9999 FEW065 09/M03 Q1018 NOSIG

TAF TAF LBPD
Valido dal 29 a 12 ore il 01 a 12 ore UTC


291100Z 2912/0112 27008KT CAVOK
BECMG 2920/2922 VRB04KT
TEMPO 0103/0107 5000 BR SCT010
BECMG 0109/0111 10008KT



MetMap, La meteo Aeronautica in un colpo d'occhio ! - Copyright ORBIFLY Dicembre 2007 - Disclaimer

ORBIFLY MET'MAP TEAM :

Programmazione e sviluppo : Alexandra Zaïnal
Concezione : Baudouin d'Aumeries
Aiuto per la programmazione : Marc-Olivier Méhu
Supporto tecnico e logistico : Manuel Goepfert
Aiuto per la traduzione : Arnaldo La Scala

Contatto : metmap@orbifly.com




FONTI E CREDITI :

   NOAA